首页
METAR-TAF:

METAR-TAF

机场 :

里耶卡, 克罗地亚

纬度: 45-13N, 经度: 014-35E, 海拔: 85米

当前天气观测

该预报发布于16分钟前的22:00 UTC
风速4节,风向东转东南
温度 18°C
湿度 59%
气压 1024 hPa
能见度10公里或以上
1500米以下无云,无积雨云

METAR: LDRI 132200Z 12004KT CAVOK 18/10 Q1024

时间: 00:16 (22:16 UTC)

预报

该预报发布于4小时和51分钟前的17:25 UTC
预报有效从13日的 18点(UTC)到 14日的 18点(UTC)
风速2节,风向多变
能见度10公里或以上
1500米以下无云,无积雨云
短暂存在
从 14日的 13点(UTC)到 14日的 17点(UTC)
风速10节,风向西

TAF: LDRI 131725Z 1318/1418 VRB02KT CAVOK TX28/1413Z TN15/1405Z TEMPO 1413/1417 27010KT

超过4000个机场的气象观测和天气预报(METAR&TAF报告)。

可查询的气象台以黄色和红色小点在地图上表示。

将鼠标移到小点上方,可查看气象台名称。

然后点击查看天气观测和预报。

如需切换地图:点击带黑十字的绿色按钮放大地图;点击带横线的绿色按钮缩小地图;或者点击绿色箭头查看邻近地区的地图。


METAR-TAF: